sensor_id;sensor_type;location;lat;lon;timestamp;pressure;altitude;pressure_sealevel;temperature;humidity
32733;BME280;11867;51.198;11.966;2023-02-23T00:00:56;100100.22;;;9.07;93.18
32733;BME280;11867;51.198;11.966;2023-02-23T00:01:58;100099.66;;;9.16;92.82
32733;BME280;11867;51.198;11.966;2023-02-23T00:03:06;100100.69;;;9.25;91.94
32733;BME280;11867;51.198;11.966;2023-02-23T00:04:08;100100.91;;;9.34;91.45
32733;BME280;11867;51.198;11.966;2023-02-23T00:05:10;100099.03;;;9.29;91.34
32733;BME280;11867;51.198;11.966;2023-02-23T00:06:12;100100.91;;;9.39;91.15
32733;BME280;11867;51.198;11.966;2023-02-23T00:07:14;100094.94;;;9.37;91.01
32733;BME280;11867;51.198;11.966;2023-02-23T00:08:19;100103.59;;;9.44;90.71
32733;BME280;11867;51.198;11.966;2023-02-23T00:09:23;100098.69;;;9.51;90.47
32733;BME280;11867;51.198;11.966;2023-02-23T00:10:25;100097.03;;;9.55;90.13
32733;BME280;11867;51.198;11.966;2023-02-23T00:11:30;100089.69;;;9.50;89.86
32733;BME280;11867;51.198;11.966;2023-02-23T00:12:34;100091.91;;;9.43;90.14
32733;BME280;11867;51.198;11.966;2023-02-23T00:13:37;100092.00;;;9.23;90.63
32733;BME280;11867;51.198;11.966;2023-02-23T00:14:39;100090.31;;;9.37;90.64
32733;BME280;11867;51.198;11.966;2023-02-23T00:15:43;100093.53;;;9.44;90.13
32733;BME280;11867;51.198;11.966;2023-02-23T00:16:44;100096.50;;;9.53;89.73
32733;BME280;11867;51.198;11.966;2023-02-23T00:17:47;100106.25;;;9.59;89.27
32733;BME280;11867;51.198;11.966;2023-02-23T00:18:50;100095.66;;;9.53;89.01
32733;BME280;11867;51.198;11.966;2023-02-23T00:19:54;100097.00;;;9.60;88.79
32733;BME280;11867;51.198;11.966;2023-02-23T00:20:56;100094.84;;;9.52;88.97
32733;BME280;11867;51.198;11.966;2023-02-23T00:21:59;100096.78;;;9.46;89.27
32733;BME280;11867;51.198;11.966;2023-02-23T00:23:01;100093.56;;;9.39;89.75
32733;BME280;11867;51.198;11.966;2023-02-23T00:24:06;100104.13;;;9.46;89.48
32733;BME280;11867;51.198;11.966;2023-02-23T00:25:10;100094.59;;;9.48;89.10
32733;BME280;11867;51.198;11.966;2023-02-23T00:26:12;100096.78;;;9.52;88.92
32733;BME280;11867;51.198;11.966;2023-02-23T00:27:14;100104.94;;;9.52;89.07
32733;BME280;11867;51.198;11.966;2023-02-23T00:28:19;100093.81;;;9.38;89.25
32733;BME280;11867;51.198;11.966;2023-02-23T00:29:22;100100.56;;;9.50;89.54
32733;BME280;11867;51.198;11.966;2023-02-23T00:30:25;100102.75;;;9.54;89.16
32733;BME280;11867;51.198;11.966;2023-02-23T00:31:29;100105.44;;;9.59;88.57
32733;BME280;11867;51.198;11.966;2023-02-23T00:32:31;100104.06;;;9.61;88.28
32733;BME280;11867;51.198;11.966;2023-02-23T00:33:33;100101.38;;;9.56;88.46
32733;BME280;11867;51.198;11.966;2023-02-23T00:34:36;100108.34;;;9.18;89.39
32733;BME280;11867;51.198;11.966;2023-02-23T00:35:37;100112.97;;;9.12;90.81
32733;BME280;11867;51.198;11.966;2023-02-23T00:36:40;100106.69;;;9.17;90.52
32733;BME280;11867;51.198;11.966;2023-02-23T00:37:43;100108.28;;;9.33;90.15
32733;BME280;11867;51.198;11.966;2023-02-23T00:38:46;100118.38;;;9.22;90.30
32733;BME280;11867;51.198;11.966;2023-02-23T00:39:47;100114.97;;;8.60;91.99
32733;BME280;11867;51.198;11.966;2023-02-23T00:40:50;100117.13;;;8.53;93.83
32733;BME280;11867;51.198;11.966;2023-02-23T00:41:52;100110.63;;;8.49;94.43
32733;BME280;11867;51.198;11.966;2023-02-23T00:42:55;100108.16;;;8.68;94.09
32733;BME280;11867;51.198;11.966;2023-02-23T00:43:59;100106.47;;;8.93;93.10
32733;BME280;11867;51.198;11.966;2023-02-23T00:45:02;100107.53;;;9.07;92.07
32733;BME280;11867;51.198;11.966;2023-02-23T00:46:08;100102.91;;;9.13;91.35
32733;BME280;11867;51.198;11.966;2023-02-23T00:47:13;100111.03;;;9.23;90.91
32733;BME280;11867;51.198;11.966;2023-02-23T00:48:14;100113.28;;;8.95;91.23
32733;BME280;11867;51.198;11.966;2023-02-23T00:49:18;100110.09;;;8.52;92.50
32733;BME280;11867;51.198;11.966;2023-02-23T00:50:20;100111.09;;;7.95;96.01
32733;BME280;11867;51.198;11.966;2023-02-23T00:51:25;100116.81;;;7.25;100.00
32733;BME280;11867;51.198;11.966;2023-02-23T00:52:27;100113.47;;;7.02;100.00
32733;BME280;11867;51.198;11.966;2023-02-23T00:53:30;100105.06;;;6.99;100.00
32733;BME280;11867;51.198;11.966;2023-02-23T00:54:32;100108.13;;;7.18;100.00
32733;BME280;11867;51.198;11.966;2023-02-23T00:55:35;100101.72;;;6.86;100.00
32733;BME280;11867;51.198;11.966;2023-02-23T00:56:41;100103.94;;;6.57;100.00
32733;BME280;11867;51.198;11.966;2023-02-23T00:57:43;100107.91;;;6.44;100.00
32733;BME280;11867;51.198;11.966;2023-02-23T00:58:45;100107.75;;;6.24;100.00
32733;BME280;11867;51.198;11.966;2023-02-23T00:59:47;100108.03;;;6.22;100.00
32733;BME280;11867;51.198;11.966;2023-02-23T01:00:49;100101.50;;;6.18;100.00
32733;BME280;11867;51.198;11.966;2023-02-23T01:01:51;100109.31;;;6.47;100.00
32733;BME280;11867;51.198;11.966;2023-02-23T01:02:54;100104.16;;;6.88;100.00
32733;BME280;11867;51.198;11.966;2023-02-23T01:03:57;100109.13;;;7.01;100.00
32733;BME280;11867;51.198;11.966;2023-02-23T01:04:59;100100.59;;;7.35;100.00
32733;BME280;11867;51.198;11.966;2023-02-23T01:06:06;100101.78;;;7.60;100.00
32733;BME280;11867;51.198;11.966;2023-02-23T01:07:08;100108.63;;;7.83;100.00
32733;BME280;11867;51.198;11.966;2023-02-23T01:08:13;100097.75;;;7.83;100.00
32733;BME280;11867;51.198;11.966;2023-02-23T01:09:16;100094.41;;;7.50;100.00
32733;BME280;11867;51.198;11.966;2023-02-23T01:10:27;100100.09;;;7.43;100.00
32733;BME280;11867;51.198;11.966;2023-02-23T01:11:29;100099.44;;;7.16;100.00
32733;BME280;11867;51.198;11.966;2023-02-23T01:12:32;100101.56;;;7.08;100.00
32733;BME280;11867;51.198;11.966;2023-02-23T01:13:34;100097.28;;;7.23;100.00
32733;BME280;11867;51.198;11.966;2023-02-23T01:14:36;100099.19;;;7.27;100.00
32733;BME280;11867;51.198;11.966;2023-02-23T01:15:41;100092.56;;;6.98;100.00
32733;BME280;11867;51.198;11.966;2023-02-23T01:16:44;100093.28;;;6.83;100.00
32733;BME280;11867;51.198;11.966;2023-02-23T01:17:46;100095.19;;;6.82;100.00
32733;BME280;11867;51.198;11.966;2023-02-23T01:18:50;100101.13;;;6.79;100.00
32733;BME280;11867;51.198;11.966;2023-02-23T01:19:51;100098.47;;;6.84;100.00
32733;BME280;11867;51.198;11.966;2023-02-23T01:20:55;100097.84;;;7.25;100.00
32733;BME280;11867;51.198;11.966;2023-02-23T01:21:57;100099.56;;;7.52;100.00
32733;BME280;11867;51.198;11.966;2023-02-23T01:22:59;100100.22;;;7.84;100.00
32733;BME280;11867;51.198;11.966;2023-02-23T01:24:02;100090.19;;;8.05;99.55
32733;BME280;11867;51.198;11.966;2023-02-23T01:25:05;100087.75;;;8.09;98.38
32733;BME280;11867;51.198;11.966;2023-02-23T01:26:14;100082.88;;;8.01;97.69
32733;BME280;11867;51.198;11.966;2023-02-23T01:27:16;100087.22;;;8.07;97.30
32733;BME280;11867;51.198;11.966;2023-02-23T01:28:18;100089.13;;;8.12;96.59
32733;BME280;11867;51.198;11.966;2023-02-23T01:29:20;100080.16;;;8.11;95.97
32733;BME280;11867;51.198;11.966;2023-02-23T01:30:22;100092.66;;;8.17;95.86
32733;BME280;11867;51.198;11.966;2023-02-23T01:31:26;100093.75;;;8.32;95.50
32733;BME280;11867;51.198;11.966;2023-02-23T01:32:29;100091.31;;;8.35;94.88
32733;BME280;11867;51.198;11.966;2023-02-23T01:33:31;100094.59;;;8.47;94.26
32733;BME280;11867;51.198;11.966;2023-02-23T01:34:34;100088.88;;;8.64;93.37
32733;BME280;11867;51.198;11.966;2023-02-23T01:35:37;100097.28;;;8.68;92.93
32733;BME280;11867;51.198;11.966;2023-02-23T01:36:40;100085.03;;;8.76;92.64
32733;BME280;11867;51.198;11.966;2023-02-23T01:37:43;100095.09;;;8.80;92.08
32733;BME280;11867;51.198;11.966;2023-02-23T01:38:44;100089.97;;;8.68;91.95
32733;BME280;11867;51.198;11.966;2023-02-23T01:39:47;100082.91;;;8.62;92.42
32733;BME280;11867;51.198;11.966;2023-02-23T01:40:48;100087.78;;;8.55;92.53
32733;BME280;11867;51.198;11.966;2023-02-23T01:41:51;100087.22;;;8.79;92.00
32733;BME280;11867;51.198;11.966;2023-02-23T01:42:56;100085.03;;;8.91;91.37
32733;BME280;11867;51.198;11.966;2023-02-23T01:44:01;100093.97;;;8.97;90.94
32733;BME280;11867;51.198;11.966;2023-02-23T01:45:29;100081.75;;;8.94;90.75
32733;BME280;11867;51.198;11.966;2023-02-23T01:46:33;100083.09;;;8.97;90.53
32733;BME280;11867;51.198;11.966;2023-02-23T01:47:35;100090.41;;;9.06;90.50
32733;BME280;11867;51.198;11.966;2023-02-23T01:48:38;100088.50;;;9.07;90.10
32733;BME280;11867;51.198;11.966;2023-02-23T01:49:43;100085.81;;;9.02;90.18
32733;BME280;11867;51.198;11.966;2023-02-23T01:50:48;100089.13;;;8.83;90.60
32733;BME280;11867;51.198;11.966;2023-02-23T01:51:55;100084.25;;;8.65;91.36
32733;BME280;11867;51.198;11.966;2023-02-23T01:52:59;100086.13;;;8.80;91.51
32733;BME280;11867;51.198;11.966;2023-02-23T01:54:06;100081.22;;;8.87;91.31
32733;BME280;11867;51.198;11.966;2023-02-23T01:55:10;100082.31;;;8.91;90.94
32733;BME280;11867;51.198;11.966;2023-02-23T01:56:17;100075.53;;;8.83;90.86
32733;BME280;11867;51.198;11.966;2023-02-23T01:57:22;100077.94;;;8.95;90.76
32733;BME280;11867;51.198;11.966;2023-02-23T01:58:26;100076.59;;;8.82;90.81
32733;BME280;11867;51.198;11.966;2023-02-23T01:59:34;100078.22;;;8.94;90.71
32733;BME280;11867;51.198;11.966;2023-02-23T02:00:38;100076.88;;;8.86;90.94
32733;BME280;11867;51.198;11.966;2023-02-23T02:01:42;100080.69;;;8.85;90.86
32733;BME280;11867;51.198;11.966;2023-02-23T02:02:44;100076.88;;;8.76;91.28
32733;BME280;11867;51.198;11.966;2023-02-23T02:03:53;100076.91;;;8.81;91.65
32733;BME280;11867;51.198;11.966;2023-02-23T02:04:57;100070.34;;;8.87;91.19
32733;BME280;11867;51.198;11.966;2023-02-23T02:06:02;100069.88;;;8.44;92.10
32733;BME280;11867;51.198;11.966;2023-02-23T02:07:04;100076.38;;;8.38;93.50
32733;BME280;11867;51.198;11.966;2023-02-23T02:08:09;100071.19;;;8.26;93.94
32733;BME280;11867;51.198;11.966;2023-02-23T02:09:14;100068.75;;;8.40;94.12
32733;BME280;11867;51.198;11.966;2023-02-23T02:10:18;100068.75;;;8.40;94.38
32733;BME280;11867;51.198;11.966;2023-02-23T02:11:37;100080.44;;;8.71;93.39
32733;BME280;11867;51.198;11.966;2023-02-23T02:12:48;100067.34;;;8.78;92.54
32733;BME280;11867;51.198;11.966;2023-02-23T02:13:53;100070.06;;;8.78;92.25
32733;BME280;11867;51.198;11.966;2023-02-23T02:14:57;100073.66;;;8.53;92.66
32733;BME280;11867;51.198;11.966;2023-02-23T02:16:11;100070.13;;;8.37;93.68
32733;BME280;11867;51.198;11.966;2023-02-23T02:17:25;100073.09;;;7.95;95.98
32733;BME280;11867;51.198;11.966;2023-02-23T02:18:36;100065.22;;;7.98;97.08
32733;BME280;11867;51.198;11.966;2023-02-23T02:20:19;100061.16;;;8.21;96.90
32733;BME280;11867;51.198;11.966;2023-02-23T02:22:03;100065.75;;;8.62;94.71
32733;BME280;11867;51.198;11.966;2023-02-23T02:25:14;100064.59;;;9.04;92.16
32733;BME280;11867;51.198;11.966;2023-02-23T02:26:25;100069.19;;;9.08;91.47
32733;BME280;11867;51.198;11.966;2023-02-23T02:27:52;100065.97;;;8.96;91.45
32733;BME280;11867;51.198;11.966;2023-02-23T02:31:12;100061.03;;;9.08;91.33
32733;BME280;11867;51.198;11.966;2023-02-23T02:32:37;100070.22;;;9.23;90.93
32733;BME280;11867;51.198;11.966;2023-02-23T02:34:00;100068.66;;;9.12;91.14
32733;BME280;11867;51.198;11.966;2023-02-23T02:37:05;100067.06;;;8.90;91.51
32733;BME280;11867;51.198;11.966;2023-02-23T02:38:24;100060.81;;;8.89;92.28
32733;BME280;11867;51.198;11.966;2023-02-23T02:39:38;100063.25;;;8.96;92.55
32733;BME280;11867;51.198;11.966;2023-02-23T02:40:50;100062.25;;;8.66;93.20
32733;BME280;11867;51.198;11.966;2023-02-23T02:42:01;100050.31;;;8.52;93.84
32733;BME280;11867;51.198;11.966;2023-02-23T02:43:10;100050.81;;;8.64;94.06
32733;BME280;11867;51.198;11.966;2023-02-23T02:44:20;100061.94;;;8.83;93.54
32733;BME280;11867;51.198;11.966;2023-02-23T02:45:27;100063.78;;;8.98;92.93
32733;BME280;11867;51.198;11.966;2023-02-23T02:46:36;100056.69;;;9.02;92.51
32733;BME280;11867;51.198;11.966;2023-02-23T02:47:44;100047.44;;;9.14;92.01
32733;BME280;11867;51.198;11.966;2023-02-23T02:48:53;100057.69;;;9.27;91.48
32733;BME280;11867;51.198;11.966;2023-02-23T02:50:03;100060.69;;;9.31;90.91
32733;BME280;11867;51.198;11.966;2023-02-23T02:51:13;100060.34;;;9.42;90.46
32733;BME280;11867;51.198;11.966;2023-02-23T02:52:26;100059.22;;;9.48;90.16
32733;BME280;11867;51.198;11.966;2023-02-23T02:53:37;100056.75;;;9.57;89.31
32733;BME280;11867;51.198;11.966;2023-02-23T02:54:45;100056.44;;;9.59;88.97
32733;BME280;11867;51.198;11.966;2023-02-23T02:55:50;100056.78;;;9.47;88.99
32733;BME280;11867;51.198;11.966;2023-02-23T02:56:54;100045.66;;;9.38;89.02
32733;BME280;11867;51.198;11.966;2023-02-23T02:58:02;100057.38;;;9.39;89.67
32733;BME280;11867;51.198;11.966;2023-02-23T02:59:10;100052.78;;;9.29;89.71
32733;BME280;11867;51.198;11.966;2023-02-23T03:00:35;100064.75;;;9.28;89.97
32733;BME280;11867;51.198;11.966;2023-02-23T03:01:56;100062.94;;;9.08;90.28
32733;BME280;11867;51.198;11.966;2023-02-23T03:03:31;100057.69;;;9.27;89.99
32733;BME280;11867;51.198;11.966;2023-02-23T03:04:52;100060.63;;;9.41;89.27
32733;BME280;11867;51.198;11.966;2023-02-23T03:06:13;100055.16;;;9.46;88.83
32733;BME280;11867;51.198;11.966;2023-02-23T03:07:39;100063.59;;;9.44;88.98
32733;BME280;11867;51.198;11.966;2023-02-23T03:09:09;100063.38;;;9.36;89.20
32733;BME280;11867;51.198;11.966;2023-02-23T03:10:35;100060.91;;;9.34;89.52
32733;BME280;11867;51.198;11.966;2023-02-23T03:12:05;100057.88;;;8.71;91.66
32733;BME280;11867;51.198;11.966;2023-02-23T03:13:33;100047.22;;;8.84;92.17
32733;BME280;11867;51.198;11.966;2023-02-23T03:15:03;100057.50;;;9.03;91.75
32733;BME280;11867;51.198;11.966;2023-02-23T03:16:36;100056.78;;;8.77;91.95
32733;BME280;11867;51.198;11.966;2023-02-23T03:18:07;100060.00;;;8.94;92.10
32733;BME280;11867;51.198;11.966;2023-02-23T03:19:39;100058.03;;;9.10;91.37
32733;BME280;11867;51.198;11.966;2023-02-23T03:21:13;100064.50;;;9.24;90.64
32733;BME280;11867;51.198;11.966;2023-02-23T03:22:38;100060.63;;;9.36;90.02
32733;BME280;11867;51.198;11.966;2023-02-23T03:24:10;100058.19;;;9.39;89.56
32733;BME280;11867;51.198;11.966;2023-02-23T03:25:45;100052.44;;;9.46;89.48
32733;BME280;11867;51.198;11.966;2023-02-23T03:27:13;100067.63;;;9.52;88.95
32733;BME280;11867;51.198;11.966;2023-02-23T03:28:36;100065.72;;;9.58;88.71
32733;BME280;11867;51.198;11.966;2023-02-23T03:30:00;100068.44;;;9.53;88.38
32733;BME280;11867;51.198;11.966;2023-02-23T03:31:27;100064.16;;;9.41;89.00
32733;BME280;11867;51.198;11.966;2023-02-23T03:32:55;100064.69;;;9.43;89.22
32733;BME280;11867;51.198;11.966;2023-02-23T03:34:19;100068.00;;;9.35;89.52
32733;BME280;11867;51.198;11.966;2023-02-23T03:35:47;100068.00;;;9.30;89.58
32733;BME280;11867;51.198;11.966;2023-02-23T03:37:13;100063.66;;;9.29;90.17
32733;BME280;11867;51.198;11.966;2023-02-23T03:38:42;100066.97;;;9.21;90.25
32733;BME280;11867;51.198;11.966;2023-02-23T03:40:09;100063.94;;;9.27;90.45
32733;BME280;11867;51.198;11.966;2023-02-23T03:41:33;100063.91;;;9.38;89.78
32733;BME280;11867;51.198;11.966;2023-02-23T03:42:56;100063.63;;;9.34;89.98
32733;BME280;11867;51.198;11.966;2023-02-23T03:44:23;100074.19;;;9.46;89.53
32733;BME280;11867;51.198;11.966;2023-02-23T03:45:47;100074.72;;;9.48;89.18
32733;BME280;11867;51.198;11.966;2023-02-23T03:47:10;100064.66;;;9.48;88.88
32733;BME280;11867;51.198;11.966;2023-02-23T03:48:33;100070.09;;;9.48;88.95
32733;BME280;11867;51.198;11.966;2023-02-23T03:49:58;100070.69;;;9.40;89.24
32733;BME280;11867;51.198;11.966;2023-02-23T03:51:23;100072.28;;;9.46;89.13
32733;BME280;11867;51.198;11.966;2023-02-23T03:52:49;100070.63;;;9.56;88.92
32733;BME280;11867;51.198;11.966;2023-02-23T03:54:14;100066.31;;;9.44;88.68
32733;BME280;11867;51.198;11.966;2023-02-23T03:55:40;100077.19;;;9.44;89.33
32733;BME280;11867;51.198;11.966;2023-02-23T03:57:04;100072.34;;;9.36;89.21
32733;BME280;11867;51.198;11.966;2023-02-23T03:58:29;100073.94;;;9.42;89.50
32733;BME280;11867;51.198;11.966;2023-02-23T03:59:53;100078.53;;;9.52;89.12
32733;BME280;11867;51.198;11.966;2023-02-23T04:01:15;100073.72;;;9.34;89.04
32733;BME280;11867;51.198;11.966;2023-02-23T04:02:38;100076.75;;;9.22;90.32
32733;BME280;11867;51.198;11.966;2023-02-23T04:04:00;100080.53;;;9.31;90.15
32733;BME280;11867;51.198;11.966;2023-02-23T04:05:22;100072.31;;;9.41;89.65
32733;BME280;11867;51.198;11.966;2023-02-23T04:06:44;100073.94;;;9.47;89.12
32733;BME280;11867;51.198;11.966;2023-02-23T04:08:08;100073.66;;;9.44;89.08
32733;BME280;11867;51.198;11.966;2023-02-23T04:09:32;100078.03;;;9.45;89.22
32733;BME280;11867;51.198;11.966;2023-02-23T04:10:57;100077.53;;;9.33;89.52
32733;BME280;11867;51.198;11.966;2023-02-23T04:12:22;100070.72;;;9.30;89.90
32733;BME280;11867;51.198;11.966;2023-02-23T04:13:47;100075.09;;;9.31;89.76
32733;BME280;11867;51.198;11.966;2023-02-23T04:14:55;100080.88;;;9.14;90.54
32733;BME280;11867;51.198;11.966;2023-02-23T04:16:00;100074.97;;;8.92;91.13
32733;BME280;11867;51.198;11.966;2023-02-23T04:17:03;100077.13;;;8.89;91.99
32733;BME280;11867;51.198;11.966;2023-02-23T04:18:11;100081.19;;;9.07;91.67
32733;BME280;11867;51.198;11.966;2023-02-23T04:19:15;100076.31;;;8.99;91.61
32733;BME280;11867;51.198;11.966;2023-02-23T04:20:16;100074.75;;;8.52;93.58
32733;BME280;11867;51.198;11.966;2023-02-23T04:21:19;100076.38;;;8.38;95.40
32733;BME280;11867;51.198;11.966;2023-02-23T04:22:22;100071.47;;;8.65;94.96
32733;BME280;11867;51.198;11.966;2023-02-23T04:23:25;100075.50;;;8.88;93.88
32733;BME280;11867;51.198;11.966;2023-02-23T04:24:27;100080.09;;;9.03;92.71
32733;BME280;11867;51.198;11.966;2023-02-23T04:25:31;100080.84;;;9.19;91.94
32733;BME280;11867;51.198;11.966;2023-02-23T04:26:32;100080.31;;;9.17;91.51
32733;BME280;11867;51.198;11.966;2023-02-23T04:27:35;100071.06;;;9.18;91.28
32733;BME280;11867;51.198;11.966;2023-02-23T04:28:37;100076.16;;;9.30;90.89
32733;BME280;11867;51.198;11.966;2023-02-23T04:29:39;100078.31;;;9.38;90.40
32733;BME280;11867;51.198;11.966;2023-02-23T04:30:41;100085.94;;;9.41;90.04
32733;BME280;11867;51.198;11.966;2023-02-23T04:31:43;100079.91;;;9.44;89.53
32733;BME280;11867;51.198;11.966;2023-02-23T04:32:46;100084.53;;;9.49;89.36
32733;BME280;11867;51.198;11.966;2023-02-23T04:33:53;100081.78;;;9.54;89.00
32733;BME280;11867;51.198;11.966;2023-02-23T04:34:55;100084.50;;;9.59;88.80
32733;BME280;11867;51.198;11.966;2023-02-23T04:35:57;100085.03;;;9.61;88.75
32733;BME280;11867;51.198;11.966;2023-02-23T04:36:59;100088.28;;;9.63;88.47
32733;BME280;11867;51.198;11.966;2023-02-23T04:38:02;100084.84;;;9.37;89.18
32733;BME280;11867;51.198;11.966;2023-02-23T04:39:04;100086.31;;;9.14;90.20
32733;BME280;11867;51.198;11.966;2023-02-23T04:40:08;100091.03;;;8.83;92.08
32733;BME280;11867;51.198;11.966;2023-02-23T04:41:11;100085.59;;;8.26;94.54
32733;BME280;11867;51.198;11.966;2023-02-23T04:42:14;100087.69;;;7.68;98.42
32733;BME280;11867;51.198;11.966;2023-02-23T04:43:15;100085.38;;;7.24;100.00
32733;BME280;11867;51.198;11.966;2023-02-23T04:44:18;100085.44;;;7.34;100.00
32733;BME280;11867;51.198;11.966;2023-02-23T04:45:22;100085.44;;;7.34;100.00
32733;BME280;11867;51.198;11.966;2023-02-23T04:46:25;100089.00;;;7.50;100.00
32733;BME280;11867;51.198;11.966;2023-02-23T04:47:26;100083.59;;;7.60;100.00
32733;BME280;11867;51.198;11.966;2023-02-23T04:48:29;100086.13;;;7.93;100.00
32733;BME280;11867;51.198;11.966;2023-02-23T04:49:31;100081.78;;;8.22;99.62
32733;BME280;11867;51.198;11.966;2023-02-23T04:50:33;100087.22;;;8.07;98.88
32733;BME280;11867;51.198;11.966;2023-02-23T04:51:35;100079.59;;;7.99;99.43
32733;BME280;11867;51.198;11.966;2023-02-23T04:52:37;100078.53;;;8.15;98.79
32733;BME280;11867;51.198;11.966;2023-02-23T04:53:39;100085.88;;;8.35;97.82
32733;BME280;11867;51.198;11.966;2023-02-23T04:54:41;100085.63;;;8.62;96.20
32733;BME280;11867;51.198;11.966;2023-02-23T04:55:43;100082.31;;;8.81;94.92
32733;BME280;11867;51.198;11.966;2023-02-23T04:56:49;100080.13;;;8.93;94.05
32733;BME280;11867;51.198;11.966;2023-02-23T04:57:51;100079.56;;;9.01;93.13
32733;BME280;11867;51.198;11.966;2023-02-23T04:58:54;100083.34;;;9.00;92.69
32733;BME280;11867;51.198;11.966;2023-02-23T04:59:55;100088.00;;;8.89;92.70
32733;BME280;11867;51.198;11.966;2023-02-23T05:01:03;100087.72;;;8.96;92.83
32733;BME280;11867;51.198;11.966;2023-02-23T05:02:05;100090.44;;;9.01;92.77
32733;BME280;11867;51.198;11.966;2023-02-23T05:03:07;100081.41;;;9.11;92.56
32733;BME280;11867;51.198;11.966;2023-02-23T05:04:09;100086.94;;;8.85;93.16
32733;BME280;11867;51.198;11.966;2023-02-23T05:05:12;100095.34;;;8.94;93.45
32733;BME280;11867;51.198;11.966;2023-02-23T05:06:13;100082.81;;;9.03;92.91
32733;BME280;11867;51.198;11.966;2023-02-23T05:07:16;100085.50;;;9.14;92.29
32733;BME280;11867;51.198;11.966;2023-02-23T05:08:17;100090.91;;;9.19;92.05
32733;BME280;11867;51.198;11.966;2023-02-23T05:09:20;100085.25;;;9.05;92.29
32733;BME280;11867;51.198;11.966;2023-02-23T05:10:21;100084.41;;;9.15;92.18
32733;BME280;11867;51.198;11.966;2023-02-23T05:11:24;100077.84;;;9.21;91.76
32733;BME280;11867;51.198;11.966;2023-02-23T05:12:28;100082.72;;;9.24;91.33
32733;BME280;11867;51.198;11.966;2023-02-23T05:13:30;100086.31;;;9.09;91.76
32733;BME280;11867;51.198;11.966;2023-02-23T05:14:32;100088.78;;;9.05;91.88
32733;BME280;11867;51.198;11.966;2023-02-23T05:15:35;100085.56;;;8.93;92.31
32733;BME280;11867;51.198;11.966;2023-02-23T05:16:37;100084.53;;;8.58;93.45
32733;BME280;11867;51.198;11.966;2023-02-23T05:17:40;100080.19;;;8.32;95.49
32733;BME280;11867;51.198;11.966;2023-02-23T05:18:42;100079.63;;;8.19;97.25
32733;BME280;11867;51.198;11.966;2023-02-23T05:19:45;100079.34;;;8.36;97.34
32733;BME280;11867;51.198;11.966;2023-02-23T05:20:46;100087.25;;;8.58;96.49
32733;BME280;11867;51.198;11.966;2023-02-23T05:21:49;100083.69;;;8.83;95.18
32733;BME280;11867;51.198;11.966;2023-02-23T05:22:50;100079.56;;;8.96;93.96
32733;BME280;11867;51.198;11.966;2023-02-23T05:23:53;100078.19;;;9.04;93.25
32733;BME280;11867;51.198;11.966;2023-02-23T05:24:55;100080.31;;;9.17;92.40
32733;BME280;11867;51.198;11.966;2023-02-23T05:26:01;100080.84;;;9.19;92.24
32733;BME280;11867;51.198;11.966;2023-02-23T05:27:04;100073.06;;;8.82;92.43
32733;BME280;11867;51.198;11.966;2023-02-23T05:28:08;100085.63;;;8.47;94.95
32733;BME280;11867;51.198;11.966;2023-02-23T05:29:09;100073.66;;;8.38;96.41
32733;BME280;11867;51.198;11.966;2023-02-23T05:30:12;100080.19;;;8.57;96.32
32733;BME280;11867;51.198;11.966;2023-02-23T05:31:14;100086.41;;;8.73;95.60
32733;BME280;11867;51.198;11.966;2023-02-23T05:32:17;100085.59;;;8.73;95.34
32733;BME280;11867;51.198;11.966;2023-02-23T05:33:19;100085.03;;;8.81;95.10
32733;BME280;11867;51.198;11.966;2023-02-23T05:34:22;100079.56;;;8.96;94.60
32733;BME280;11867;51.198;11.966;2023-02-23T05:35:24;100083.88;;;9.07;94.07
32733;BME280;11867;51.198;11.966;2023-02-23T05:36:27;100077.84;;;9.21;93.16
32733;BME280;11867;51.198;11.966;2023-02-23T05:37:29;100081.66;;;9.20;92.92
32733;BME280;11867;51.198;11.966;2023-02-23T05:38:31;100083.09;;;8.97;93.44
32733;BME280;11867;51.198;11.966;2023-02-23T05:39:32;100082.84;;;8.93;93.89
32733;BME280;11867;51.198;11.966;2023-02-23T05:40:35;100080.88;;;9.14;93.66
32733;BME280;11867;51.198;11.966;2023-02-23T05:41:38;100083.56;;;9.24;93.32
32733;BME280;11867;51.198;11.966;2023-02-23T05:42:40;100088.69;;;9.31;92.77
32733;BME280;11867;51.198;11.966;2023-02-23T05:43:44;100078.63;;;9.32;92.40
32733;BME280;11867;51.198;11.966;2023-02-23T05:44:45;100081.59;;;9.30;92.32
32733;BME280;11867;51.198;11.966;2023-02-23T05:45:48;100087.03;;;9.35;92.21
32733;BME280;11867;51.198;11.966;2023-02-23T05:46:49;100084.00;;;9.42;92.02
32733;BME280;11867;51.198;11.966;2023-02-23T05:47:51;100070.50;;;9.21;92.32
32733;BME280;11867;51.198;11.966;2023-02-23T05:48:55;100085.69;;;9.33;92.62
32733;BME280;11867;51.198;11.966;2023-02-23T05:49:58;100088.13;;;9.39;92.21
32733;BME280;11867;51.198;11.966;2023-02-23T05:51:01;100094.63;;;9.43;92.05
32733;BME280;11867;51.198;11.966;2023-02-23T05:52:03;100091.59;;;9.50;91.86
32733;BME280;11867;51.198;11.966;2023-02-23T05:53:05;100094.53;;;9.59;91.32
32733;BME280;11867;51.198;11.966;2023-02-23T05:54:08;100092.63;;;9.64;90.93
32733;BME280;11867;51.198;11.966;2023-02-23T05:55:10;100092.88;;;9.68;90.45
32733;BME280;11867;51.198;11.966;2023-02-23T05:56:15;100096.94;;;9.70;90.43
32733;BME280;11867;51.198;11.966;2023-02-23T05:57:20;100092.56;;;9.75;90.19
32733;BME280;11867;51.198;11.966;2023-02-23T05:58:23;100092.31;;;9.71;89.99
32733;BME280;11867;51.198;11.966;2023-02-23T05:59:26;100101.31;;;9.72;89.74
32733;BME280;11867;51.198;11.966;2023-02-23T06:00:29;100092.88;;;9.68;89.74
32733;BME280;11867;51.198;11.966;2023-02-23T06:01:31;100092.59;;;9.69;89.51